sensor_id;sensor_type;location;lat;lon;timestamp;P1;durP1;ratioP1;P2;durP2;ratioP2
78404;SDS011;67689;43.592;1.418;2023-03-01T00:01:05;25.40;;;12.02;;
78404;SDS011;67689;43.592;1.418;2023-03-01T00:03:38;26.13;;;12.77;;
78404;SDS011;67689;43.592;1.418;2023-03-01T00:06:03;28.50;;;12.50;;
78404;SDS011;67689;43.592;1.418;2023-03-01T00:08:29;26.55;;;13.05;;
78404;SDS011;67689;43.592;1.418;2023-03-01T00:13:31;27.30;;;13.68;;
78404;SDS011;67689;43.592;1.418;2023-03-01T00:15:59;27.23;;;13.77;;
78404;SDS011;67689;43.592;1.418;2023-03-01T00:18:27;26.85;;;13.02;;
78404;SDS011;67689;43.592;1.418;2023-03-01T00:20:53;25.08;;;13.40;;
78404;SDS011;67689;43.592;1.418;2023-03-01T00:23:19;27.88;;;13.02;;
78404;SDS011;67689;43.592;1.418;2023-03-01T00:25:45;27.65;;;12.57;;
78404;SDS011;67689;43.592;1.418;2023-03-01T00:28:11;26.77;;;12.20;;
78404;SDS011;67689;43.592;1.418;2023-03-01T00:30:36;23.75;;;11.68;;
78404;SDS011;67689;43.592;1.418;2023-03-01T00:33:01;23.60;;;11.25;;
78404;SDS011;67689;43.592;1.418;2023-03-01T00:35:27;22.65;;;10.90;;
78404;SDS011;67689;43.592;1.418;2023-03-01T00:37:52;23.38;;;10.98;;
78404;SDS011;67689;43.592;1.418;2023-03-01T00:40:18;22.23;;;10.93;;
78404;SDS011;67689;43.592;1.418;2023-03-01T00:42:43;20.38;;;10.38;;
78404;SDS011;67689;43.592;1.418;2023-03-01T00:45:09;21.60;;;10.40;;
78404;SDS011;67689;43.592;1.418;2023-03-01T00:47:34;20.10;;;9.85;;
78404;SDS011;67689;43.592;1.418;2023-03-01T00:50:00;22.25;;;10.20;;
78404;SDS011;67689;43.592;1.418;2023-03-01T00:52:25;21.55;;;10.25;;
78404;SDS011;67689;43.592;1.418;2023-03-01T00:54:51;19.65;;;9.32;;
78404;SDS011;67689;43.592;1.418;2023-03-01T00:57:17;18.88;;;9.02;;
78404;SDS011;67689;43.592;1.418;2023-03-01T00:59:43;16.70;;;8.98;;
78404;SDS011;67689;43.592;1.418;2023-03-01T01:02:08;18.63;;;9.70;;
78404;SDS011;67689;43.592;1.418;2023-03-01T01:04:34;23.02;;;9.82;;
78404;SDS011;67689;43.592;1.418;2023-03-01T01:06:59;16.83;;;8.75;;
78404;SDS011;67689;43.592;1.418;2023-03-01T01:09:25;20.30;;;8.93;;
78404;SDS011;67689;43.592;1.418;2023-03-01T01:11:50;20.20;;;9.20;;
78404;SDS011;67689;43.592;1.418;2023-03-01T01:14:16;20.30;;;9.35;;
78404;SDS011;67689;43.592;1.418;2023-03-01T01:16:43;18.38;;;9.32;;
78404;SDS011;67689;43.592;1.418;2023-03-01T01:19:09;19.13;;;10.20;;
78404;SDS011;67689;43.592;1.418;2023-03-01T01:21:35;18.83;;;9.07;;
78404;SDS011;67689;43.592;1.418;2023-03-01T01:24:02;19.25;;;9.50;;
78404;SDS011;67689;43.592;1.418;2023-03-01T01:26:29;19.75;;;9.18;;
78404;SDS011;67689;43.592;1.418;2023-03-01T01:28:55;18.65;;;9.20;;
78404;SDS011;67689;43.592;1.418;2023-03-01T01:31:21;17.27;;;9.18;;
78404;SDS011;67689;43.592;1.418;2023-03-01T01:33:48;17.30;;;7.80;;
78404;SDS011;67689;43.592;1.418;2023-03-01T01:36:14;16.40;;;7.70;;
78404;SDS011;67689;43.592;1.418;2023-03-01T01:38:40;16.85;;;8.80;;
78404;SDS011;67689;43.592;1.418;2023-03-01T01:41:07;16.88;;;8.00;;
78404;SDS011;67689;43.592;1.418;2023-03-01T01:43:43;14.75;;;7.88;;
78404;SDS011;67689;43.592;1.418;2023-03-01T01:48:43;16.73;;;7.57;;
78404;SDS011;67689;43.592;1.418;2023-03-01T01:51:12;15.10;;;7.20;;
78404;SDS011;67689;43.592;1.418;2023-03-01T01:53:43;15.35;;;7.10;;
78404;SDS011;67689;43.592;1.418;2023-03-01T01:56:10;14.25;;;7.18;;
78404;SDS011;67689;43.592;1.418;2023-03-01T01:58:36;14.35;;;7.15;;
78404;SDS011;67689;43.592;1.418;2023-03-01T02:01:03;15.65;;;7.78;;
78404;SDS011;67689;43.592;1.418;2023-03-01T02:03:29;14.98;;;7.15;;
78404;SDS011;67689;43.592;1.418;2023-03-01T02:08:32;16.65;;;7.53;;
78404;SDS011;67689;43.592;1.418;2023-03-01T02:10:59;15.27;;;7.35;;
78404;SDS011;67689;43.592;1.418;2023-03-01T02:13:25;14.43;;;6.88;;
78404;SDS011;67689;43.592;1.418;2023-03-01T02:15:50;15.60;;;7.45;;
78404;SDS011;67689;43.592;1.418;2023-03-01T02:18:16;15.75;;;7.30;;
78404;SDS011;67689;43.592;1.418;2023-03-01T02:23:30;15.00;;;7.85;;
78404;SDS011;67689;43.592;1.418;2023-03-01T02:28:33;13.95;;;7.30;;
78404;SDS011;67689;43.592;1.418;2023-03-01T02:31:06;15.82;;;8.23;;
78404;SDS011;67689;43.592;1.418;2023-03-01T02:33:51;18.67;;;8.90;;
78404;SDS011;67689;43.592;1.418;2023-03-01T02:36:18;16.20;;;8.70;;
78404;SDS011;67689;43.592;1.418;2023-03-01T02:38:46;17.90;;;9.30;;
78404;SDS011;67689;43.592;1.418;2023-03-01T02:41:13;18.75;;;9.45;;
78404;SDS011;67689;43.592;1.418;2023-03-01T02:43:40;18.38;;;9.27;;
78404;SDS011;67689;43.592;1.418;2023-03-01T02:46:14;19.58;;;9.32;;
78404;SDS011;67689;43.592;1.418;2023-03-01T02:48:55;20.55;;;9.65;;
78404;SDS011;67689;43.592;1.418;2023-03-01T02:56:46;18.85;;;9.10;;
78404;SDS011;67689;43.592;1.418;2023-03-01T02:59:13;16.65;;;9.15;;
78404;SDS011;67689;43.592;1.418;2023-03-01T03:01:40;20.10;;;9.48;;
78404;SDS011;67689;43.592;1.418;2023-03-01T03:04:07;21.13;;;10.15;;
78404;SDS011;67689;43.592;1.418;2023-03-01T03:06:35;19.70;;;9.10;;
78404;SDS011;67689;43.592;1.418;2023-03-01T03:09:01;24.15;;;10.75;;
78404;SDS011;67689;43.592;1.418;2023-03-01T03:11:27;20.40;;;10.55;;
78404;SDS011;67689;43.592;1.418;2023-03-01T03:13:52;18.70;;;10.60;;
78404;SDS011;67689;43.592;1.418;2023-03-01T03:16:18;16.98;;;9.57;;
78404;SDS011;67689;43.592;1.418;2023-03-01T03:18:43;19.65;;;10.48;;
78404;SDS011;67689;43.592;1.418;2023-03-01T03:21:09;21.15;;;10.43;;
78404;SDS011;67689;43.592;1.418;2023-03-01T03:23:36;19.63;;;9.90;;
78404;SDS011;67689;43.592;1.418;2023-03-01T03:26:02;21.67;;;10.05;;
78404;SDS011;67689;43.592;1.418;2023-03-01T03:28:29;19.90;;;9.93;;
78404;SDS011;67689;43.592;1.418;2023-03-01T03:30:55;22.08;;;11.02;;
78404;SDS011;67689;43.592;1.418;2023-03-01T03:33:21;23.40;;;11.35;;
78404;SDS011;67689;43.592;1.418;2023-03-01T03:35:47;22.50;;;11.43;;
78404;SDS011;67689;43.592;1.418;2023-03-01T03:38:14;21.73;;;10.75;;
78404;SDS011;67689;43.592;1.418;2023-03-01T03:40:42;24.85;;;11.10;;
78404;SDS011;67689;43.592;1.418;2023-03-01T03:43:10;23.13;;;11.70;;
78404;SDS011;67689;43.592;1.418;2023-03-01T03:45:43;22.60;;;11.20;;
78404;SDS011;67689;43.592;1.418;2023-03-01T03:48:10;23.75;;;11.80;;
78404;SDS011;67689;43.592;1.418;2023-03-01T03:50:36;23.58;;;11.10;;
78404;SDS011;67689;43.592;1.418;2023-03-01T03:53:03;22.60;;;11.23;;
78404;SDS011;67689;43.592;1.418;2023-03-01T03:55:31;22.05;;;11.02;;
78404;SDS011;67689;43.592;1.418;2023-03-01T03:57:59;26.35;;;11.40;;
78404;SDS011;67689;43.592;1.418;2023-03-01T04:00:32;21.55;;;10.93;;
78404;SDS011;67689;43.592;1.418;2023-03-01T04:02:58;23.52;;;10.95;;
78404;SDS011;67689;43.592;1.418;2023-03-01T04:05:23;23.05;;;11.25;;
78404;SDS011;67689;43.592;1.418;2023-03-01T04:07:49;22.70;;;11.18;;
78404;SDS011;67689;43.592;1.418;2023-03-01T04:10:26;19.88;;;10.57;;
78404;SDS011;67689;43.592;1.418;2023-03-01T04:12:52;22.50;;;11.32;;
78404;SDS011;67689;43.592;1.418;2023-03-01T04:15:18;22.95;;;11.13;;
78404;SDS011;67689;43.592;1.418;2023-03-01T04:17:44;25.27;;;11.52;;
78404;SDS011;67689;43.592;1.418;2023-03-01T04:20:11;23.95;;;11.63;;
78404;SDS011;67689;43.592;1.418;2023-03-01T04:22:49;26.05;;;11.88;;
78404;SDS011;67689;43.592;1.418;2023-03-01T04:25:15;26.77;;;13.02;;
78404;SDS011;67689;43.592;1.418;2023-03-01T04:27:40;25.88;;;12.38;;
78404;SDS011;67689;43.592;1.418;2023-03-01T04:30:06;25.63;;;11.52;;
78404;SDS011;67689;43.592;1.418;2023-03-01T04:32:33;23.58;;;11.40;;
78404;SDS011;67689;43.592;1.418;2023-03-01T04:34:58;21.90;;;11.15;;
78404;SDS011;67689;43.592;1.418;2023-03-01T04:37:24;21.42;;;11.35;;
78404;SDS011;67689;43.592;1.418;2023-03-01T04:39:50;21.25;;;10.95;;
78404;SDS011;67689;43.592;1.418;2023-03-01T04:42:15;22.30;;;10.52;;
78404;SDS011;67689;43.592;1.418;2023-03-01T04:44:41;21.52;;;11.02;;
78404;SDS011;67689;43.592;1.418;2023-03-01T04:47:07;24.20;;;11.82;;
78404;SDS011;67689;43.592;1.418;2023-03-01T04:49:33;23.00;;;11.27;;
78404;SDS011;67689;43.592;1.418;2023-03-01T04:51:58;24.88;;;11.05;;
78404;SDS011;67689;43.592;1.418;2023-03-01T04:54:26;24.58;;;10.90;;
78404;SDS011;67689;43.592;1.418;2023-03-01T04:56:59;22.50;;;10.68;;
78404;SDS011;67689;43.592;1.418;2023-03-01T04:59:25;23.67;;;10.82;;
78404;SDS011;67689;43.592;1.418;2023-03-01T05:01:50;22.15;;;11.32;;
78404;SDS011;67689;43.592;1.418;2023-03-01T05:04:17;22.85;;;11.48;;
78404;SDS011;67689;43.592;1.418;2023-03-01T05:06:42;21.25;;;10.55;;
78404;SDS011;67689;43.592;1.418;2023-03-01T05:09:08;21.67;;;10.63;;
78404;SDS011;67689;43.592;1.418;2023-03-01T05:11:33;21.88;;;10.75;;
78404;SDS011;67689;43.592;1.418;2023-03-01T05:14:07;24.45;;;10.95;;
78404;SDS011;67689;43.592;1.418;2023-03-01T05:16:33;22.85;;;10.77;;
78404;SDS011;67689;43.592;1.418;2023-03-01T05:18:58;24.95;;;11.20;;
78404;SDS011;67689;43.592;1.418;2023-03-01T05:21:24;27.92;;;11.65;;
78404;SDS011;67689;43.592;1.418;2023-03-01T05:23:50;25.85;;;12.00;;
78404;SDS011;67689;43.592;1.418;2023-03-01T05:26:16;22.88;;;11.25;;
78404;SDS011;67689;43.592;1.418;2023-03-01T05:28:42;21.40;;;10.82;;
78404;SDS011;67689;43.592;1.418;2023-03-01T05:31:08;23.75;;;11.70;;
78404;SDS011;67689;43.592;1.418;2023-03-01T05:33:38;20.17;;;10.75;;
78404;SDS011;67689;43.592;1.418;2023-03-01T05:36:04;26.40;;;11.23;;
78404;SDS011;67689;43.592;1.418;2023-03-01T05:38:33;24.23;;;11.85;;
78404;SDS011;67689;43.592;1.418;2023-03-01T05:40:58;25.65;;;11.60;;
78404;SDS011;67689;43.592;1.418;2023-03-01T05:43:24;20.08;;;10.57;;
78404;SDS011;67689;43.592;1.418;2023-03-01T05:45:49;21.20;;;10.50;;
78404;SDS011;67689;43.592;1.418;2023-03-01T05:48:15;20.73;;;10.65;;
78404;SDS011;67689;43.592;1.418;2023-03-01T05:50:44;23.67;;;11.75;;
78404;SDS011;67689;43.592;1.418;2023-03-01T05:53:14;21.50;;;11.07;;
78404;SDS011;67689;43.592;1.418;2023-03-01T05:55:41;21.00;;;11.20;;
78404;SDS011;67689;43.592;1.418;2023-03-01T05:58:10;23.85;;;11.43;;
78404;SDS011;67689;43.592;1.418;2023-03-01T06:00:36;23.50;;;11.10;;
78404;SDS011;67689;43.592;1.418;2023-03-01T06:03:02;22.95;;;10.52;;
78404;SDS011;67689;43.592;1.418;2023-03-01T06:05:28;26.52;;;11.95;;
78404;SDS011;67689;43.592;1.418;2023-03-01T06:07:54;24.27;;;10.73;;
78404;SDS011;67689;43.592;1.418;2023-03-01T06:10:20;20.48;;;10.50;;
78404;SDS011;67689;43.592;1.418;2023-03-01T06:12:46;23.77;;;10.82;;
78404;SDS011;67689;43.592;1.418;2023-03-01T06:15:12;21.88;;;10.65;;
78404;SDS011;67689;43.592;1.418;2023-03-01T06:17:39;23.30;;;10.05;;
78404;SDS011;67689;43.592;1.418;2023-03-01T06:20:07;24.63;;;10.73;;
78404;SDS011;67689;43.592;1.418;2023-03-01T06:22:34;19.92;;;10.32;;
78404;SDS011;67689;43.592;1.418;2023-03-01T06:25:00;25.02;;;10.40;;
78404;SDS011;67689;43.592;1.418;2023-03-01T06:27:25;21.55;;;10.88;;
78404;SDS011;67689;43.592;1.418;2023-03-01T06:29:51;22.50;;;11.45;;
78404;SDS011;67689;43.592;1.418;2023-03-01T06:32:17;24.08;;;11.00;;
78404;SDS011;67689;43.592;1.418;2023-03-01T06:34:43;19.63;;;10.45;;
78404;SDS011;67689;43.592;1.418;2023-03-01T06:37:09;24.65;;;10.65;;
78404;SDS011;67689;43.592;1.418;2023-03-01T06:39:34;19.00;;;10.25;;
78404;SDS011;67689;43.592;1.418;2023-03-01T06:41:59;24.17;;;11.43;;
78404;SDS011;67689;43.592;1.418;2023-03-01T06:46:50;21.83;;;10.60;;
78404;SDS011;67689;43.592;1.418;2023-03-01T06:49:15;30.80;;;14.07;;
78404;SDS011;67689;43.592;1.418;2023-03-01T06:51:42;22.73;;;10.88;;
78404;SDS011;67689;43.592;1.418;2023-03-01T06:54:08;21.10;;;10.75;;
78404;SDS011;67689;43.592;1.418;2023-03-01T06:56:33;20.88;;;10.02;;
78404;SDS011;67689;43.592;1.418;2023-03-01T06:58:59;20.13;;;10.15;;
78404;SDS011;67689;43.592;1.418;2023-03-01T07:01:24;20.33;;;10.25;;
78404;SDS011;67689;43.592;1.418;2023-03-01T07:03:50;18.90;;;10.18;;
78404;SDS011;67689;43.592;1.418;2023-03-01T07:06:15;18.90;;;9.38;;
78404;SDS011;67689;43.592;1.418;2023-03-01T07:08:40;24.23;;;11.18;;
78404;SDS011;67689;43.592;1.418;2023-03-01T07:11:06;21.63;;;10.40;;
78404;SDS011;67689;43.592;1.418;2023-03-01T07:13:32;24.30;;;10.55;;
78404;SDS011;67689;43.592;1.418;2023-03-01T07:15:57;23.35;;;11.50;;
78404;SDS011;67689;43.592;1.418;2023-03-01T07:18:23;22.40;;;11.15;;
78404;SDS011;67689;43.592;1.418;2023-03-01T07:20:48;23.15;;;10.95;;
78404;SDS011;67689;43.592;1.418;2023-03-01T07:23:14;25.08;;;11.35;;
78404;SDS011;67689;43.592;1.418;2023-03-01T07:25:40;22.45;;;11.63;;
78404;SDS011;67689;43.592;1.418;2023-03-01T07:28:05;23.77;;;11.48;;
78404;SDS011;67689;43.592;1.418;2023-03-01T07:30:30;23.58;;;11.20;;
78404;SDS011;67689;43.592;1.418;2023-03-01T07:32:57;24.73;;;11.90;;
78404;SDS011;67689;43.592;1.418;2023-03-01T07:35:23;24.98;;;11.52;;
78404;SDS011;67689;43.592;1.418;2023-03-01T07:37:49;22.13;;;10.82;;
78404;SDS011;67689;43.592;1.418;2023-03-01T07:40:15;28.27;;;11.18;;
78404;SDS011;67689;43.592;1.418;2023-03-01T07:42:40;28.02;;;12.13;;
78404;SDS011;67689;43.592;1.418;2023-03-01T07:45:06;24.70;;;11.65;;
78404;SDS011;67689;43.592;1.418;2023-03-01T07:47:31;25.77;;;10.88;;
78404;SDS011;67689;43.592;1.418;2023-03-01T07:49:57;29.40;;;11.73;;
78404;SDS011;67689;43.592;1.418;2023-03-01T07:52:23;21.38;;;10.77;;
78404;SDS011;67689;43.592;1.418;2023-03-01T07:54:48;25.38;;;12.07;;
78404;SDS011;67689;43.592;1.418;2023-03-01T07:57:13;22.98;;;11.23;;
78404;SDS011;67689;43.592;1.418;2023-03-01T07:59:39;28.42;;;12.27;;
78404;SDS011;67689;43.592;1.418;2023-03-01T08:02:05;24.63;;;11.45;;
78404;SDS011;67689;43.592;1.418;2023-03-01T08:04:30;25.77;;;12.50;;
78404;SDS011;67689;43.592;1.418;2023-03-01T08:06:58;29.48;;;12.93;;
78404;SDS011;67689;43.592;1.418;2023-03-01T08:09:23;30.38;;;13.43;;
78404;SDS011;67689;43.592;1.418;2023-03-01T08:11:48;25.40;;;12.07;;
78404;SDS011;67689;43.592;1.418;2023-03-01T08:14:14;23.23;;;11.75;;
78404;SDS011;67689;43.592;1.418;2023-03-01T08:16:39;23.90;;;11.60;;
78404;SDS011;67689;43.592;1.418;2023-03-01T08:19:09;24.63;;;11.55;;
78404;SDS011;67689;43.592;1.418;2023-03-01T08:21:35;24.83;;;11.30;;
78404;SDS011;67689;43.592;1.418;2023-03-01T08:24:02;21.00;;;10.40;;
78404;SDS011;67689;43.592;1.418;2023-03-01T08:26:28;18.45;;;9.73;;
78404;SDS011;67689;43.592;1.418;2023-03-01T08:28:53;20.35;;;9.60;;
78404;SDS011;67689;43.592;1.418;2023-03-01T08:31:23;20.77;;;10.48;;
78404;SDS011;67689;43.592;1.418;2023-03-01T08:33:53;20.45;;;10.07;;
78404;SDS011;67689;43.592;1.418;2023-03-01T08:36:21;19.90;;;9.85;;
78404;SDS011;67689;43.592;1.418;2023-03-01T08:38:50;21.85;;;10.10;;
78404;SDS011;67689;43.592;1.418;2023-03-01T08:41:15;20.27;;;9.88;;
78404;SDS011;67689;43.592;1.418;2023-03-01T08:43:41;20.95;;;10.02;;
78404;SDS011;67689;43.592;1.418;2023-03-01T08:46:06;22.38;;;10.27;;
78404;SDS011;67689;43.592;1.418;2023-03-01T08:48:32;24.48;;;10.63;;
78404;SDS011;67689;43.592;1.418;2023-03-01T08:51:06;19.15;;;10.48;;
78404;SDS011;67689;43.592;1.418;2023-03-01T08:53:32;24.65;;;10.43;;
78404;SDS011;67689;43.592;1.418;2023-03-01T08:55:59;27.77;;;10.25;;
78404;SDS011;67689;43.592;1.418;2023-03-01T08:58:25;19.63;;;9.60;;
78404;SDS011;67689;43.592;1.418;2023-03-01T09:00:50;21.10;;;10.13;;
78404;SDS011;67689;43.592;1.418;2023-03-01T09:03:15;24.83;;;10.38;;
78404;SDS011;67689;43.592;1.418;2023-03-01T09:05:41;26.27;;;11.32;;
78404;SDS011;67689;43.592;1.418;2023-03-01T09:08:06;21.58;;;10.18;;
78404;SDS011;67689;43.592;1.418;2023-03-01T09:10:33;18.63;;;9.73;;
78404;SDS011;67689;43.592;1.418;2023-03-01T09:13:02;17.88;;;9.80;;
78404;SDS011;67689;43.592;1.418;2023-03-01T09:15:28;20.63;;;9.77;;
78404;SDS011;67689;43.592;1.418;2023-03-01T09:17:53;20.45;;;10.60;;
78404;SDS011;67689;43.592;1.418;2023-03-01T09:20:18;24.55;;;10.88;;
78404;SDS011;67689;43.592;1.418;2023-03-01T09:22:44;20.75;;;10.25;;
78404;SDS011;67689;43.592;1.418;2023-03-01T09:25:09;20.65;;;10.75;;
78404;SDS011;67689;43.592;1.418;2023-03-01T09:27:34;18.25;;;9.32;;
78404;SDS011;67689;43.592;1.418;2023-03-01T09:30:00;20.05;;;10.05;;
78404;SDS011;67689;43.592;1.418;2023-03-01T09:32:25;22.35;;;10.25;;
78404;SDS011;67689;43.592;1.418;2023-03-01T09:34:51;17.83;;;9.52;;
78404;SDS011;67689;43.592;1.418;2023-03-01T09:37:32;15.95;;;8.68;;
78404;SDS011;67689;43.592;1.418;2023-03-01T09:39:58;17.23;;;9.85;;
78404;SDS011;67689;43.592;1.418;2023-03-01T09:42:23;14.20;;;8.27;;
78404;SDS011;67689;43.592;1.418;2023-03-01T09:44:57;15.32;;;7.60;;
78404;SDS011;67689;43.592;1.418;2023-03-01T09:47:26;12.38;;;7.25;;
78404;SDS011;67689;43.592;1.418;2023-03-01T09:55:17;12.45;;;6.45;;
78404;SDS011;67689;43.592;1.418;2023-03-01T09:57:55;12.65;;;5.93;;
78404;SDS011;67689;43.592;1.418;2023-03-01T10:10:46;13.38;;;6.68;;
78404;SDS011;67689;43.592;1.418;2023-03-01T10:15:45;13.38;;;6.65;;
78404;SDS011;67689;43.592;1.418;2023-03-01T10:18:25;12.48;;;5.78;;
78404;SDS011;67689;43.592;1.418;2023-03-01T10:20:53;9.80;;;5.40;;
78404;SDS011;67689;43.592;1.418;2023-03-01T10:23:23;9.32;;;5.35;;
78404;SDS011;67689;43.592;1.418;2023-03-01T10:28:34;10.90;;;5.63;;
78404;SDS011;67689;43.592;1.418;2023-03-01T10:31:13;11.27;;;5.85;;
78404;SDS011;67689;43.592;1.418;2023-03-01T10:33:40;11.38;;;5.85;;
78404;SDS011;67689;43.592;1.418;2023-03-01T10:36:06;11.93;;;6.45;;
78404;SDS011;67689;43.592;1.418;2023-03-01T10:38:33;12.98;;;6.15;;
78404;SDS011;67689;43.592;1.418;2023-03-01T10:41:13;10.88;;;5.90;;
78404;SDS011;67689;43.592;1.418;2023-03-01T10:43:47;10.25;;;5.78;;
78404;SDS011;67689;43.592;1.418;2023-03-01T10:49:25;11.85;;;6.07;;
78404;SDS011;67689;43.592;1.418;2023-03-01T10:51:49;10.27;;;5.60;;
78404;SDS011;67689;43.592;1.418;2023-03-01T10:54:16;11.65;;;5.90;;
78404;SDS011;67689;43.592;1.418;2023-03-01T10:56:51;12.13;;;6.50;;
78404;SDS011;67689;43.592;1.418;2023-03-01T10:59:20;9.23;;;4.95;;
78404;SDS011;67689;43.592;1.418;2023-03-01T11:01:49;10.43;;;5.55;;
78404;SDS011;67689;43.592;1.418;2023-03-01T11:05:00;16.08;;;5.88;;
78404;SDS011;67689;43.592;1.418;2023-03-01T11:07:28;10.52;;;5.70;;
78404;SDS011;67689;43.592;1.418;2023-03-01T11:09:53;10.82;;;5.18;;
78404;SDS011;67689;43.592;1.418;2023-03-01T11:12:19;13.00;;;5.57;;
78404;SDS011;67689;43.592;1.418;2023-03-01T11:14:46;10.25;;;5.53;;
78404;SDS011;67689;43.592;1.418;2023-03-01T11:17:27;12.68;;;6.45;;
78404;SDS011;67689;43.592;1.418;2023-03-01T11:20:29;9.50;;;5.30;;
78404;SDS011;67689;43.592;1.418;2023-03-01T11:22:49;10.82;;;6.00;;
78404;SDS011;67689;43.592;1.418;2023-03-01T11:25:17;10.77;;;5.90;;
78404;SDS011;67689;43.592;1.418;2023-03-01T11:27:44;10.60;;;5.63;;
78404;SDS011;67689;43.592;1.418;2023-03-01T11:32:40;10.68;;;5.50;;
78404;SDS011;67689;43.592;1.418;2023-03-01T11:35:18;11.07;;;5.60;;
78404;SDS011;67689;43.592;1.418;2023-03-01T11:51:05;13.68;;;5.60;;
78404;SDS011;67689;43.592;1.418;2023-03-01T11:59:04;11.50;;;5.90;;
78404;SDS011;67689;43.592;1.418;2023-03-01T12:15:39;10.20;;;5.55;;
78404;SDS011;67689;43.592;1.418;2023-03-01T12:20:43;9.25;;;5.47;;
78404;SDS011;67689;43.592;1.418;2023-03-01T12:28:42;10.90;;;5.88;;
78404;SDS011;67689;43.592;1.418;2023-03-01T12:34:15;9.93;;;5.72;;
78404;SDS011;67689;43.592;1.418;2023-03-01T12:48:17;10.98;;;5.13;;
78404;SDS011;67689;43.592;1.418;2023-03-01T12:50:47;11.43;;;5.78;;
78404;SDS011;67689;43.592;1.418;2023-03-01T12:53:57;9.38;;;5.45;;
78404;SDS011;67689;43.592;1.418;2023-03-01T12:56:11;10.65;;;5.40;;
78404;SDS011;67689;43.592;1.418;2023-03-01T12:58:41;10.65;;;5.65;;
78404;SDS011;67689;43.592;1.418;2023-03-01T13:01:35;8.77;;;4.57;;
78404;SDS011;67689;43.592;1.418;2023-03-01T13:15:24;9.68;;;5.20;;
78404;SDS011;67689;43.592;1.418;2023-03-01T13:17:53;13.43;;;5.78;;
78404;SDS011;67689;43.592;1.418;2023-03-01T13:21:05;10.50;;;5.47;;
78404;SDS011;67689;43.592;1.418;2023-03-01T13:23:13;11.20;;;5.40;;
78404;SDS011;67689;43.592;1.418;2023-03-01T13:31:10;11.05;;;5.40;;
78404;SDS011;67689;43.592;1.418;2023-03-01T13:33:52;10.10;;;5.45;;
78404;SDS011;67689;43.592;1.418;2023-03-01T13:46:47;10.63;;;5.03;;
78404;SDS011;67689;43.592;1.418;2023-03-01T13:49:18;9.23;;;4.90;;
78404;SDS011;67689;43.592;1.418;2023-03-01T13:51:48;11.77;;;5.22;;
78404;SDS011;67689;43.592;1.418;2023-03-01T13:54:15;11.73;;;5.93;;
78404;SDS011;67689;43.592;1.418;2023-03-01T13:56:43;9.25;;;5.20;;
78404;SDS011;67689;43.592;1.418;2023-03-01T13:59:16;13.18;;;4.88;;
78404;SDS011;67689;43.592;1.418;2023-03-01T14:01:43;9.98;;;4.88;;
78404;SDS011;67689;43.592;1.418;2023-03-01T14:04:22;10.10;;;5.50;;
78404;SDS011;67689;43.592;1.418;2023-03-01T14:06:47;11.35;;;5.05;;
78404;SDS011;67689;43.592;1.418;2023-03-01T14:09:17;12.27;;;5.60;;
78404;SDS011;67689;43.592;1.418;2023-03-01T14:19:54;11.15;;;5.80;;
78404;SDS011;67689;43.592;1.418;2023-03-01T14:22:24;10.82;;;5.50;;
78404;SDS011;67689;43.592;1.418;2023-03-01T14:24:55;11.10;;;5.60;;
78404;SDS011;67689;43.592;1.418;2023-03-01T14:27:25;10.02;;;5.85;;
78404;SDS011;67689;43.592;1.418;2023-03-01T14:29:59;19.67;;;8.65;;
78404;SDS011;67689;43.592;1.418;2023-03-01T14:34:52;11.07;;;6.40;;
78404;SDS011;67689;43.592;1.418;2023-03-01T14:37:20;7.78;;;3.97;;
78404;SDS011;67689;43.592;1.418;2023-03-01T14:39:57;9.63;;;5.60;;
78404;SDS011;67689;43.592;1.418;2023-03-01T14:42:25;15.23;;;5.45;;
78404;SDS011;67689;43.592;1.418;2023-03-01T14:44:53;12.63;;;5.50;;
78404;SDS011;67689;43.592;1.418;2023-03-01T14:47:27;10.80;;;5.50;;
78404;SDS011;67689;43.592;1.418;2023-03-01T14:50:05;13.73;;;6.28;;
78404;SDS011;67689;43.592;1.418;2023-03-01T14:52:37;9.80;;;5.95;;
78404;SDS011;67689;43.592;1.418;2023-03-01T14:55:26;11.30;;;5.70;;
78404;SDS011;67689;43.592;1.418;2023-03-01T14:58:03;12.82;;;5.88;;
78404;SDS011;67689;43.592;1.418;2023-03-01T15:00:30;9.65;;;5.10;;
78404;SDS011;67689;43.592;1.418;2023-03-01T15:02:58;13.40;;;5.70;;
78404;SDS011;67689;43.592;1.418;2023-03-01T15:05:29;10.45;;;5.18;;
78404;SDS011;67689;43.592;1.418;2023-03-01T15:07:56;10.60;;;5.47;;
78404;SDS011;67689;43.592;1.418;2023-03-01T15:10:40;11.20;;;6.13;;
78404;SDS011;67689;43.592;1.418;2023-03-01T15:13:22;12.93;;;6.05;;
78404;SDS011;67689;43.592;1.418;2023-03-01T15:15:50;10.00;;;6.05;;
78404;SDS011;67689;43.592;1.418;2023-03-01T15:18:25;10.15;;;4.90;;
78404;SDS011;67689;43.592;1.418;2023-03-01T15:20:52;10.77;;;5.73;;
78404;SDS011;67689;43.592;1.418;2023-03-01T15:23:25;10.48;;;5.65;;
78404;SDS011;67689;43.592;1.418;2023-03-01T15:25:52;12.18;;;6.22;;
78404;SDS011;67689;43.592;1.418;2023-03-01T15:28:22;9.90;;;5.85;;
78404;SDS011;67689;43.592;1.418;2023-03-01T15:33:44;11.80;;;5.55;;
78404;SDS011;67689;43.592;1.418;2023-03-01T15:39:23;10.82;;;5.57;;
78404;SDS011;67689;43.592;1.418;2023-03-01T15:44:37;11.23;;;5.60;;
78404;SDS011;67689;43.592;1.418;2023-03-01T15:50:05;11.05;;;5.40;;
78404;SDS011;67689;43.592;1.418;2023-03-01T15:55:03;11.38;;;5.60;;
78404;SDS011;67689;43.592;1.418;2023-03-01T15:57:29;10.30;;;5.60;;
78404;SDS011;67689;43.592;1.418;2023-03-01T15:59:55;10.93;;;5.38;;
78404;SDS011;67689;43.592;1.418;2023-03-01T16:02:21;10.77;;;5.60;;
78404;SDS011;67689;43.592;1.418;2023-03-01T16:04:47;10.50;;;5.38;;
78404;SDS011;67689;43.592;1.418;2023-03-01T16:07:15;10.75;;;5.85;;
78404;SDS011;67689;43.592;1.418;2023-03-01T16:09:41;10.48;;;6.13;;
78404;SDS011;67689;43.592;1.418;2023-03-01T16:12:11;10.70;;;5.15;;
78404;SDS011;67689;43.592;1.418;2023-03-01T16:14:39;10.93;;;5.38;;
78404;SDS011;67689;43.592;1.418;2023-03-01T16:17:04;10.27;;;5.70;;
78404;SDS011;67689;43.592;1.418;2023-03-01T16:19:30;9.65;;;5.32;;
78404;SDS011;67689;43.592;1.418;2023-03-01T16:21:55;10.65;;;6.03;;
78404;SDS011;67689;43.592;1.418;2023-03-01T16:24:21;10.38;;;5.57;;
78404;SDS011;67689;43.592;1.418;2023-03-01T16:26:46;10.77;;;5.70;;
78404;SDS011;67689;43.592;1.418;2023-03-01T16:29:11;10.35;;;5.35;;
78404;SDS011;67689;43.592;1.418;2023-03-01T16:31:37;10.13;;;5.25;;
78404;SDS011;67689;43.592;1.418;2023-03-01T16:34:02;11.35;;;5.95;;
78404;SDS011;67689;43.592;1.418;2023-03-01T16:36:28;10.77;;;5.78;;
78404;SDS011;67689;43.592;1.418;2023-03-01T16:38:54;10.32;;;5.68;;
78404;SDS011;67689;43.592;1.418;2023-03-01T16:41:21;9.90;;;5.18;;
78404;SDS011;67689;43.592;1.418;2023-03-01T16:43:47;13.85;;;5.63;;
78404;SDS011;67689;43.592;1.418;2023-03-01T16:46:14;11.80;;;6.28;;
78404;SDS011;67689;43.592;1.418;2023-03-01T16:48:44;10.25;;;5.70;;
78404;SDS011;67689;43.592;1.418;2023-03-01T16:51:10;12.35;;;6.13;;
78404;SDS011;67689;43.592;1.418;2023-03-01T16:53:35;10.48;;;5.45;;
78404;SDS011;67689;43.592;1.418;2023-03-01T16:56:03;11.40;;;6.03;;
78404;SDS011;67689;43.592;1.418;2023-03-01T16:58:30;10.77;;;5.40;;
78404;SDS011;67689;43.592;1.418;2023-03-01T17:00:55;12.65;;;6.10;;
78404;SDS011;67689;43.592;1.418;2023-03-01T17:03:22;11.80;;;5.68;;
78404;SDS011;67689;43.592;1.418;2023-03-01T17:05:49;12.55;;;6.40;;
78404;SDS011;67689;43.592;1.418;2023-03-01T17:08:14;10.18;;;5.40;;